Time;durP1;ratioP1;P1;durP2;ratioP2;P2;SDS_P1;SDS_P2;PMS_P1;PMS_P2;Temp;Humidity;BMP_temperature;BMP_pressure;BME280_temperature;BME280_humidity;BME280_pressure;Samples;Min_cycle;Max_cycle;Signal;HPM_P1;HPM_P2
2021/12/29 00:00:48;;;;;;;21.00;8.40;;;8.40;99.90;;;;;;5081756;28;20079;-81
2021/12/29 00:03:15;;;;;;;16.98;6.88;;;6.70;99.90;;;;;;5084977;28;20043;-82
2021/12/29 00:05:41;;;;;;;20.83;8.35;;;6.70;99.90;;;;;;5084322;28;20056;-82
2021/12/29 00:08:07;;;;;;;13.38;7.15;;;6.60;99.90;;;;;;5084553;28;20051;-82
2021/12/29 00:10:33;;;;;;;17.45;7.68;;;6.60;99.90;;;;;;5085029;28;20050;-81
2021/12/29 00:13:00;;;;;;;15.43;7.30;;;6.60;99.90;;;;;;5049115;28;20131;-81
2021/12/29 00:15:27;;;;;;;13.80;6.53;;;6.60;99.90;;;;;;5085249;28;20511;-82
2021/12/29 00:17:55;;;;;;;10.40;5.97;;;6.60;99.90;;;;;;5065671;28;20095;-82
2021/12/29 00:20:28;;;;;;;15.90;6.68;;;6.60;99.90;;;;;;5084965;28;20424;-82
2021/12/29 00:23:01;;;;;;;11.35;5.95;;;6.60;99.90;;;;;;5084416;28;20044;-82
2021/12/29 00:25:27;;;;;;;9.18;4.93;;;6.60;99.90;;;;;;5084097;28;20047;-82
2021/12/29 00:27:55;;;;;;;9.70;5.45;;;6.60;99.90;;;;;;5084933;28;20036;-82
2021/12/29 00:30:21;;;;;;;8.77;5.22;;;6.50;99.90;;;;;;5083469;28;20044;-82
2021/12/29 00:32:47;;;;;;;8.85;5.45;;;6.50;99.90;;;;;;5084551;28;20052;-82
2021/12/29 00:35:14;;;;;;;8.40;5.18;;;6.50;99.90;;;;;;5083556;28;20109;-82
2021/12/29 00:37:41;;;;;;;7.72;5.20;;;6.50;99.90;;;;;;5084870;28;20048;-82
2021/12/29 00:40:08;;;;;;;12.45;6.55;;;6.50;99.90;;;;;;5066345;28;20064;-82
2021/12/29 00:42:34;;;;;;;14.73;6.03;;;6.50;99.90;;;;;;5083496;28;20040;-82
2021/12/29 00:44:59;;;;;;;18.27;6.47;;;6.50;99.90;;;;;;5065792;28;20050;-82
2021/12/29 00:47:29;;;;;;;22.45;7.03;;;6.50;99.90;;;;;;5083495;28;20046;-82
2021/12/29 00:49:55;;;;;;;14.90;6.25;;;6.50;99.90;;;;;;5084709;28;20126;-82
2021/12/29 00:52:21;;;;;;;13.93;6.05;;;6.50;99.90;;;;;;5083535;28;20075;-82
2021/12/29 00:54:47;;;;;;;16.58;6.90;;;6.50;99.90;;;;;;5066302;28;20083;-82
2021/12/29 00:57:12;;;;;;;17.80;6.95;;;6.50;99.90;;;;;;5084188;28;20040;-81
2021/12/29 00:59:38;;;;;;;21.92;6.80;;;6.50;99.90;;;;;;5084138;28;20317;-82
2021/12/29 01:02:04;;;;;;;17.92;7.30;;;6.10;99.90;;;;;;5083974;28;20071;-82
2021/12/29 01:04:30;;;;;;;27.58;7.43;;;6.60;99.90;;;;;;5083426;28;20043;-82
2021/12/29 01:06:56;;;;;;;26.40;7.03;;;6.50;99.90;;;;;;5084601;28;20040;-82
2021/12/29 01:09:22;;;;;;;20.05;7.47;;;6.50;99.90;;;;;;5083149;28;20414;-82
2021/12/29 01:11:48;;;;;;;25.52;7.63;;;7.00;99.90;;;;;;5084643;28;20044;-82
2021/12/29 01:14:13;;;;;;;25.30;8.50;;;6.60;99.90;;;;;;5083635;28;20056;-82
2021/12/29 01:16:39;;;;;;;23.50;8.32;;;6.60;99.90;;;;;;5084201;28;20131;-82
2021/12/29 01:19:30;;;;;;;31.63;7.82;;;6.60;99.90;;;;;;5084270;28;20042;-82
2021/12/29 01:21:58;;;;;;;26.67;8.98;;;6.80;99.90;;;;;;5082160;28;20048;-82
2021/12/29 01:24:27;;;;;;;28.70;8.98;;;6.60;99.90;;;;;;5084504;28;20052;-82
2021/12/29 01:26:53;;;;;;;28.60;7.88;;;6.60;99.90;;;;;;5083911;28;20463;-82
2021/12/29 01:29:19;;;;;;;28.70;9.27;;;6.60;99.90;;;;;;5083574;28;20082;-82
2021/12/29 01:31:46;;;;;;;30.83;9.15;;;6.60;99.90;;;;;;5084238;28;20115;-82
2021/12/29 01:34:12;;;;;;;33.38;10.73;;;6.80;99.90;;;;;;5083203;28;20555;-82
2021/12/29 01:36:38;;;;;;;32.40;9.93;;;6.60;99.90;;;;;;5065636;28;20048;-82
2021/12/29 01:39:09;;;;;;;31.20;9.15;;;7.30;99.90;;;;;;5082703;28;20036;-82
2021/12/29 01:41:35;;;;;;;35.42;10.23;;;6.70;99.90;;;;;;5065826;28;20106;-82
2021/12/29 01:44:02;;;;;;;30.85;9.15;;;6.70;99.90;;;;;;5083174;28;20131;-82
2021/12/29 01:46:28;;;;;;;21.70;9.27;;;6.70;99.90;;;;;;5065518;28;20044;-82
2021/12/29 01:48:55;;;;;;;26.98;9.45;;;6.70;99.90;;;;;;5065498;28;20055;-82
2021/12/29 01:51:21;;;;;;;30.63;9.00;;;7.80;99.90;;;;;;5064645;28;20036;-82
2021/12/29 01:54:01;;;;;;;31.70;10.32;;;6.70;99.90;;;;;;5083764;28;20043;-82
2021/12/29 01:56:27;;;;;;;27.85;10.35;;;6.70;99.90;;;;;;5084623;28;20123;-82
2021/12/29 01:58:53;;;;;;;29.45;10.48;;;6.70;99.90;;;;;;5069291;28;20044;-82
2021/12/29 02:01:19;;;;;;;34.80;11.07;;;7.50;99.90;;;;;;5086975;28;20052;-82
2021/12/29 02:03:45;;;;;;;30.30;9.57;;;6.80;99.90;;;;;;5086356;28;20500;-82
2021/12/29 02:06:11;;;;;;;39.05;10.32;;;6.80;99.90;;;;;;5087370;28;20051;-82
2021/12/29 02:08:37;;;;;;;41.58;11.15;;;6.80;99.90;;;;;;5086426;28;20479;-82
2021/12/29 02:11:04;;;;;;;44.58;11.60;;;6.80;99.90;;;;;;5069283;28;20430;-82
2021/12/29 02:13:30;;;;;;;36.40;12.30;;;6.80;99.90;;;;;;5085698;28;20136;-82
2021/12/29 02:15:56;;;;;;;38.25;11.63;;;6.80;99.90;;;;;;5087522;28;20107;-82
2021/12/29 02:18:24;;;;;;;33.88;11.15;;;6.80;99.90;;;;;;5086851;28;20036;-82
2021/12/29 02:20:53;;;;;;;40.42;11.00;;;6.80;99.90;;;;;;5086420;28;20101;-82
2021/12/29 02:23:26;;;;;;;35.65;11.60;;;6.80;99.90;;;;;;5087167;28;20048;-82
2021/12/29 02:25:54;;;;;;;40.25;11.70;;;6.80;99.90;;;;;;5086004;28;20068;-82
2021/12/29 02:28:31;;;;;;;38.53;12.75;;;7.10;99.90;;;;;;5086800;28;20055;-82
2021/12/29 02:30:59;;;;;;;28.73;11.35;;;6.90;99.90;;;;;;5086401;28;20048;-82
2021/12/29 02:33:26;;;;;;;31.80;11.77;;;6.90;99.90;;;;;;5086210;28;20046;-82
2021/12/29 02:35:53;;;;;;;32.33;10.63;;;8.30;99.90;;;;;;5086522;28;20040;-82
2021/12/29 02:38:18;;;;;;;31.33;9.30;;;6.90;99.90;;;;;;5085692;28;20376;-82
2021/12/29 02:40:47;;;;;;;25.52;8.60;;;6.90;99.90;;;;;;5068388;28;20043;-82
2021/12/29 02:43:19;;;;;;;33.08;9.23;;;6.90;99.90;;;;;;5085353;28;20495;-82
2021/12/29 02:45:49;;;;;;;22.02;9.35;;;6.90;99.90;;;;;;5069082;28;20083;-82
2021/12/29 02:48:15;;;;;;;20.83;7.82;;;6.90;99.90;;;;;;5068036;28;20545;-81
2021/12/29 02:50:42;;;;;;;22.00;7.38;;;6.90;99.90;;;;;;5067731;28;20086;-82
2021/12/29 02:53:09;;;;;;;20.13;6.57;;;7.30;99.90;;;;;;5067979;28;20048;-82
2021/12/29 02:55:35;;;;;;;18.70;6.88;;;7.00;99.90;;;;;;5067102;28;20044;-82
2021/12/29 02:58:01;;;;;;;21.73;6.78;;;7.00;99.90;;;;;;5050996;28;20414;-81
2021/12/29 03:00:27;;;;;;;21.55;6.13;;;7.00;99.90;;;;;;5085150;28;20051;-82
2021/12/29 03:02:52;;;;;;;23.58;6.00;;;7.00;99.90;;;;;;5086173;28;20044;-82
2021/12/29 03:05:20;;;;;;;24.52;7.25;;;7.00;99.90;;;;;;5067191;28;20044;-82
2021/12/29 03:07:46;;;;;;;21.60;7.05;;;7.80;99.90;;;;;;5084873;28;20044;-81
2021/12/29 03:10:11;;;;;;;26.58;8.07;;;7.10;99.90;;;;;;5086303;28;20046;-82
2021/12/29 03:12:37;;;;;;;19.38;7.65;;;7.30;99.90;;;;;;5084928;28;20040;-82
2021/12/29 03:15:03;;;;;;;31.40;7.60;;;7.30;99.90;;;;;;5086149;28;20043;-82
2021/12/29 03:17:30;;;;;;;33.38;7.20;;;7.10;99.90;;;;;;5084587;28;20098;-81
2021/12/29 03:19:56;;;;;;;30.88;7.95;;;7.10;99.90;;;;;;5086184;28;20057;-82
2021/12/29 03:22:21;;;;;;;25.90;7.30;;;7.30;99.90;;;;;;5085231;28;20123;-82
2021/12/29 03:24:48;;;;;;;31.65;8.25;;;7.10;99.90;;;;;;5085427;28;20055;-82
2021/12/29 03:27:13;;;;;;;25.52;8.25;;;7.10;99.90;;;;;;5067863;28;20059;-81
2021/12/29 03:29:39;;;;;;;29.02;8.27;;;7.20;99.90;;;;;;5084661;28;20487;-82
2021/12/29 03:32:08;;;;;;;35.85;8.25;;;7.10;99.90;;;;;;5067269;28;20491;-82
2021/12/29 03:34:34;;;;;;;35.67;9.88;;;7.20;99.90;;;;;;5084662;28;20120;-82
2021/12/29 03:37:00;;;;;;;28.95;9.00;;;7.20;99.90;;;;;;5085977;28;20044;-82
2021/12/29 03:39:27;;;;;;;25.70;8.52;;;7.20;99.90;;;;;;5066140;28;20048;-82
2021/12/29 03:41:53;;;;;;;30.85;8.35;;;7.20;99.90;;;;;;5066421;28;20055;-82
2021/12/29 03:44:19;;;;;;;32.72;9.35;;;7.20;99.90;;;;;;5085715;28;20054;-82
2021/12/29 03:46:45;;;;;;;28.17;11.88;;;7.80;99.90;;;;;;5083972;28;20040;-82
2021/12/29 03:49:11;;;;;;;29.02;10.32;;;7.20;99.90;;;;;;5085522;28;20048;-82
2021/12/29 03:51:36;;;;;;;31.15;10.88;;;7.20;99.90;;;;;;5083908;28;20087;-82
2021/12/29 03:54:04;;;;;;;35.13;10.68;;;7.20;99.90;;;;;;5085518;28;20050;-82
2021/12/29 03:56:31;;;;;;;30.80;11.18;;;7.20;99.90;;;;;;5084744;28;20111;-82
2021/12/29 03:58:57;;;;;;;42.83;11.80;;;7.20;99.90;;;;;;5066650;28;20090;-82
2021/12/29 04:01:25;;;;;;;34.10;10.80;;;7.20;99.90;;;;;;5084782;28;20495;-81
2021/12/29 04:03:52;;;;;;;34.22;11.25;;;8.60;99.90;;;;;;5049039;28;20056;-82
2021/12/29 04:06:19;;;;;;;37.45;12.23;;;7.50;99.90;;;;;;5066681;28;20069;-82
2021/12/29 04:08:46;;;;;;;33.08;10.82;;;7.20;99.90;;;;;;5066067;28;20594;-82
2021/12/29 04:11:13;;;;;;;29.92;10.90;;;8.70;99.90;;;;;;5050233;28;20126;-82
2021/12/29 04:13:39;;;;;;;41.13;10.48;;;7.20;99.90;;;;;;5084013;28;20112;-82
2021/12/29 04:16:06;;;;;;;29.52;10.73;;;7.30;99.90;;;;;;5084802;28;20040;-82
2021/12/29 04:18:32;;;;;;;23.55;9.23;;;7.20;99.90;;;;;;5085233;28;20040;-82
2021/12/29 04:21:03;;;;;;;30.08;10.65;;;7.20;99.90;;;;;;5082866;28;20462;-82
2021/12/29 04:23:35;;;;;;;28.35;9.38;;;7.80;99.90;;;;;;5066679;28;20052;-82
2021/12/29 04:26:05;;;;;;;33.15;9.05;;;8.20;99.90;;;;;;5065509;28;20348;-82
2021/12/29 04:28:31;;;;;;;29.42;10.43;;;8.30;99.90;;;;;;5049706;28;20040;-82
2021/12/29 04:31:00;;;;;;;24.05;10.00;;;7.30;99.90;;;;;;5084064;28;20665;-82
2021/12/29 04:33:28;;;;;;;28.92;9.30;;;8.00;99.90;;;;;;5084023;28;20040;-81
2021/12/29 04:35:55;;;;;;;21.33;9.15;;;7.30;99.90;;;;;;5084722;28;20173;-81
2021/12/29 04:38:21;;;;;;;25.25;9.23;;;7.30;99.90;;;;;;5065069;28;20040;-81
2021/12/29 04:40:49;;;;;;;24.23;9.10;;;7.30;99.90;;;;;;5084891;28;20036;-81
2021/12/29 04:43:16;;;;;;;28.60;10.10;;;7.50;99.90;;;;;;5083487;28;20040;-81
2021/12/29 04:45:42;;;;;;;30.33;9.65;;;7.30;99.90;;;;;;5084462;28;20047;-82
2021/12/29 04:48:13;;;;;;;20.60;10.40;;;7.30;99.90;;;;;;5084329;28;20048;-81
2021/12/29 04:50:40;;;;;;;17.55;8.55;;;7.30;99.90;;;;;;5083667;28;20052;-82
2021/12/29 04:53:10;;;;;;;24.55;9.23;;;7.40;99.90;;;;;;5084217;28;20044;-81
2021/12/29 04:55:36;;;;;;;23.20;9.68;;;7.30;99.90;;;;;;5083065;28;20578;-81
2021/12/29 04:58:03;;;;;;;30.77;10.63;;;7.30;99.90;;;;;;5066449;28;20075;-81
2021/12/29 05:00:30;;;;;;;30.38;10.60;;;7.30;99.90;;;;;;5065380;28;20141;-81
2021/12/29 05:02:58;;;;;;;19.50;9.27;;;6.90;99.90;;;;;;5065734;28;20048;-81
2021/12/29 05:10:40;;;;;;;27.52;10.48;;;7.90;99.90;;;;;;5065798;28;20055;-81
2021/12/29 05:13:06;;;;;;;24.40;11.13;;;8.70;99.90;;;;;;5064717;28;20040;-82
2021/12/29 05:15:31;;;;;;;27.85;10.52;;;7.40;99.90;;;;;;5084599;28;20058;-81
2021/12/29 05:17:58;;;;;;;25.02;10.13;;;7.60;99.90;;;;;;5065661;28;20059;-81
2021/12/29 05:20:29;;;;;;;30.48;10.60;;;7.40;99.90;;;;;;5065155;28;20040;-81
2021/12/29 05:22:56;;;;;;;34.40;11.40;;;7.30;99.90;;;;;;5084197;28;20056;-81
2021/12/29 05:25:22;;;;;;;33.35;11.43;;;7.40;99.90;;;;;;5064408;28;20047;-82
2021/12/29 05:27:47;;;;;;;31.83;10.05;;;8.40;99.90;;;;;;5084273;28;20055;-81
2021/12/29 05:30:13;;;;;;;38.17;10.85;;;7.30;99.90;;;;;;5082812;28;20052;-81
2021/12/29 05:32:39;;;;;;;27.00;10.25;;;8.10;99.90;;;;;;5087902;28;20032;-81
2021/12/29 05:35:05;;;;;;;34.03;11.32;;;7.30;99.90;;;;;;5087393;28;20442;-81
2021/12/29 05:37:31;;;;;;;35.13;9.70;;;7.30;99.90;;;;;;5087228;28;20043;-82
2021/12/29 05:39:56;;;;;;;28.17;10.38;;;7.50;99.90;;;;;;5069899;28;20051;-82
2021/12/29 05:42:22;;;;;;;20.92;10.15;;;7.70;99.90;;;;;;5086597;28;20040;-82
2021/12/29 05:44:48;;;;;;;29.63;10.45;;;7.40;99.90;;;;;;5087663;28;20121;-82
2021/12/29 05:47:14;;;;;;;31.02;10.65;;;7.30;99.90;;;;;;5067964;28;20047;-82
2021/12/29 05:49:39;;;;;;;25.92;10.25;;;7.30;99.90;;;;;;5087757;28;20072;-82
2021/12/29 05:52:05;;;;;;;25.00;10.32;;;7.30;99.90;;;;;;5086844;28;20044;-82
2021/12/29 05:54:32;;;;;;;30.73;10.73;;;8.60;99.90;;;;;;5087098;28;20047;-81
2021/12/29 05:56:58;;;;;;;39.40;11.32;;;7.40;99.90;;;;;;5069629;28;20044;-82
2021/12/29 05:59:24;;;;;;;24.38;9.88;;;7.40;99.90;;;;;;5086579;28;20383;-82
2021/12/29 06:01:50;;;;;;;31.27;9.93;;;8.60;99.90;;;;;;5087352;28;20097;-82
2021/12/29 06:04:16;;;;;;;28.10;10.32;;;7.40;99.90;;;;;;5067824;28;20048;-82
2021/12/29 06:06:42;;;;;;;31.90;9.68;;;7.50;99.90;;;;;;5069792;28;20050;-82
2021/12/29 06:09:08;;;;;;;26.27;9.68;;;7.80;99.90;;;;;;5086517;28;20495;-81
2021/12/29 06:11:33;;;;;;;22.60;9.30;;;7.40;99.90;;;;;;5086686;28;20041;-81
2021/12/29 06:13:59;;;;;;;25.58;10.38;;;7.50;99.90;;;;;;5087274;28;20105;-81
2021/12/29 06:16:25;;;;;;;26.38;9.90;;;7.50;99.90;;;;;;5067751;28;20123;-81
2021/12/29 06:18:51;;;;;;;17.20;9.77;;;7.80;99.90;;;;;;5086413;28;20090;-81
2021/12/29 06:21:18;;;;;;;28.98;9.90;;;7.50;99.90;;;;;;5067503;28;20223;-81
2021/12/29 06:23:45;;;;;;;24.77;9.15;;;7.50;99.90;;;;;;5087539;28;20051;-81
2021/12/29 06:26:11;;;;;;;33.28;9.68;;;7.50;99.90;;;;;;5067903;28;20431;-82
2021/12/29 06:28:37;;;;;;;33.50;9.80;;;8.50;99.90;;;;;;5086836;28;20059;-81
2021/12/29 06:31:03;;;;;;;26.52;10.45;;;8.40;99.90;;;;;;5086846;28;20123;-81
2021/12/29 06:33:29;;;;;;;25.55;11.15;;;7.50;99.90;;;;;;5084205;28;20048;-81
2021/12/29 06:35:54;;;;;;;26.73;10.52;;;7.40;99.90;;;;;;5086661;28;20075;-82
2021/12/29 06:38:20;;;;;;;21.98;9.30;;;7.40;99.90;;;;;;5086122;28;20036;-82
2021/12/29 06:40:46;;;;;;;27.67;10.00;;;7.50;99.90;;;;;;5087160;28;20487;-80
2021/12/29 06:43:11;;;;;;;32.25;10.95;;;7.50;99.90;;;;;;5082962;28;20036;-79
2021/12/29 06:45:37;;;;;;;38.70;11.32;;;7.50;99.90;;;;;;5086906;28;20563;-79
2021/12/29 06:48:03;;;;;;;31.27;9.95;;;7.40;99.90;;;;;;5068494;28;20548;-79
2021/12/29 06:50:29;;;;;;;22.27;10.13;;;7.40;99.90;;;;;;5085656;28;20067;-78
2021/12/29 06:52:55;;;;;;;22.10;10.35;;;8.10;99.90;;;;;;5086450;28;20043;-79
2021/12/29 06:55:21;;;;;;;22.98;10.00;;;7.50;99.90;;;;;;5067031;28;20047;-80
2021/12/29 06:57:46;;;;;;;37.75;10.77;;;7.40;99.90;;;;;;5068270;28;20044;-80
2021/12/29 07:00:13;;;;;;;27.80;10.85;;;7.50;99.90;;;;;;5085265;28;20066;-79
2021/12/29 07:02:38;;;;;;;31.45;11.00;;;7.50;99.90;;;;;;5086390;28;20059;-79
2021/12/29 07:05:05;;;;;;;28.38;10.45;;;7.50;99.90;;;;;;5084683;28;20532;-79
2021/12/29 07:07:31;;;;;;;38.33;12.32;;;7.50;99.90;;;;;;5067187;28;20044;-79
2021/12/29 07:09:56;;;;;;;30.40;10.75;;;7.90;99.90;;;;;;5085791;28;20177;-79
2021/12/29 07:12:22;;;;;;;33.00;11.18;;;7.70;99.90;;;;;;5085172;28;20032;-80
2021/12/29 07:14:48;;;;;;;30.13;11.25;;;7.50;99.90;;;;;;5085918;28;20055;-79
2021/12/29 07:17:14;;;;;;;30.73;11.13;;;7.50;99.90;;;;;;5066421;28;20046;-79
2021/12/29 07:19:39;;;;;;;32.70;12.20;;;7.50;99.90;;;;;;5086527;28;20083;-78
2021/12/29 07:22:06;;;;;;;29.60;11.52;;;7.50;99.90;;;;;;5067299;28;20071;-79
2021/12/29 07:24:33;;;;;;;33.47;11.98;;;7.50;99.90;;;;;;5050399;28;20072;-79
2021/12/29 07:26:59;;;;;;;38.33;11.77;;;8.00;99.90;;;;;;5067250;28;20122;-79
2021/12/29 07:29:25;;;;;;;34.42;10.80;;;7.50;99.90;;;;;;5049659;28;20040;-78
2021/12/29 07:31:51;;;;;;;32.70;11.20;;;7.70;99.90;;;;;;5085744;28;20105;-78
2021/12/29 07:34:17;;;;;;;48.10;12.23;;;7.50;99.90;;;;;;5084310;28;20075;-81
2021/12/29 07:36:43;;;;;;;36.45;12.10;;;8.00;99.90;;;;;;5086292;28;20040;-78
2021/12/29 07:39:11;;;;;;;34.60;11.27;;;8.60;99.90;;;;;;5085092;28;20070;-80
2021/12/29 07:41:37;;;;;;;38.05;11.90;;;7.70;99.90;;;;;;5085089;28;20048;-81
2021/12/29 07:44:04;;;;;;;41.47;12.18;;;7.50;99.90;;;;;;5085381;28;20040;-80
2021/12/29 07:46:33;;;;;;;30.83;10.70;;;7.50;99.90;;;;;;5084365;28;20426;-79
2021/12/29 07:49:00;;;;;;;52.67;12.90;;;7.50;99.90;;;;;;5085213;28;20127;-79
2021/12/29 07:51:26;;;;;;;40.17;10.80;;;7.50;99.90;;;;;;5065827;28;20040;-80
2021/12/29 07:53:52;;;;;;;37.38;11.77;;;7.50;99.90;;;;;;5085603;28;20059;-79
2021/12/29 07:56:18;;;;;;;32.33;10.88;;;7.60;99.90;;;;;;5084729;28;20043;-80
2021/12/29 07:58:44;;;;;;;35.63;11.23;;;7.50;99.90;;;;;;5084996;28;20156;-79
2021/12/29 08:01:10;;;;;;;31.40;11.02;;;7.50;99.90;;;;;;5066881;28;20139;-80
2021/12/29 08:03:38;;;;;;;38.33;11.18;;;7.50;99.90;;;;;;5082420;28;20624;-79
2021/12/29 08:06:04;;;;;;;41.40;11.25;;;7.60;99.90;;;;;;5085252;28;20036;-79
2021/12/29 08:08:30;;;;;;;43.28;11.10;;;7.60;99.90;;;;;;5083839;28;20036;-80
2021/12/29 08:10:56;;;;;;;32.53;9.20;;;7.60;99.90;;;;;;5085522;28;20491;-79
2021/12/29 08:13:22;;;;;;;39.28;11.02;;;8.70;99.90;;;;;;5084520;28;20044;-78
2021/12/29 08:15:48;;;;;;;43.05;9.68;;;7.60;99.90;;;;;;5084020;28;20056;-79
2021/12/29 08:18:14;;;;;;;31.70;9.45;;;7.50;99.90;;;;;;5084864;28;20039;-83
2021/12/29 08:20:40;;;;;;;37.28;10.63;;;7.60;99.90;;;;;;5065351;28;20067;-82
2021/12/29 08:23:07;;;;;;;31.63;10.57;;;7.60;99.90;;;;;;5084719;28;20042;-80
2021/12/29 08:25:33;;;;;;;29.60;9.82;;;7.70;99.90;;;;;;5083755;28;20048;-82
2021/12/29 08:27:59;;;;;;;27.20;10.07;;;7.70;99.90;;;;;;5066600;28;20089;-83
2021/12/29 08:30:26;;;;;;;35.25;9.25;;;7.70;99.90;;;;;;5084028;28;20043;-83
2021/12/29 08:32:52;;;;;;;31.88;9.57;;;7.20;99.90;;;;;;5084387;28;20127;-83
2021/12/29 08:35:18;;;;;;;34.17;10.20;;;8.30;99.90;;;;;;5065878;28;20131;-85
2021/12/29 08:37:44;;;;;;;34.90;10.63;;;7.80;99.90;;;;;;5083837;28;20119;-85
2021/12/29 08:40:11;;;;;;;28.38;8.77;;;7.70;99.90;;;;;;5084860;28;20044;-85
2021/12/29 08:42:38;;;;;;;20.17;8.02;;;6.20;99.90;;;;;;5064462;28;20130;-85
2021/12/29 08:45:06;;;;;;;26.75;9.85;;;7.80;99.90;;;;;;5084421;28;20048;-85
2021/12/29 08:47:32;;;;;;;15.98;7.53;;;7.80;99.90;;;;;;5083992;28;20403;-84
2021/12/29 08:49:58;;;;;;;29.40;9.95;;;7.70;99.90;;;;;;5065549;28;20131;-84
2021/12/29 08:52:24;;;;;;;29.92;9.70;;;7.70;99.90;;;;;;5084490;28;20046;-85
2021/12/29 08:54:50;;;;;;;24.58;9.02;;;7.70;99.90;;;;;;5083071;28;20040;-84
2021/12/29 08:57:15;;;;;;;26.75;9.27;;;7.70;99.90;;;;;;5066341;28;20036;-85
2021/12/29 08:59:41;;;;;;;21.02;9.18;;;7.70;99.90;;;;;;5082944;28;20044;-84
2021/12/29 09:02:08;;;;;;;27.73;10.25;;;7.80;99.90;;;;;;5066205;28;20052;-85
2021/12/29 09:04:34;;;;;;;27.77;11.15;;;7.80;99.90;;;;;;5083459;28;20044;-85
2021/12/29 09:06:59;;;;;;;30.02;9.70;;;7.80;99.90;;;;;;5051452;28;20051;-85
2021/12/29 09:09:25;;;;;;;29.83;10.38;;;7.80;99.90;;;;;;5070304;28;20047;-84
2021/12/29 09:11:53;;;;;;;28.83;8.40;;;7.80;99.90;;;;;;5087032;28;20502;-85
2021/12/29 09:14:19;;;;;;;37.53;9.80;;;7.80;99.90;;;;;;5069885;28;20248;-85
2021/12/29 09:16:45;;;;;;;33.75;10.43;;;7.80;99.90;;;;;;5087068;28;20127;-85
2021/12/29 09:19:13;;;;;;;24.50;10.57;;;7.90;99.90;;;;;;5088564;28;20087;-85
2021/12/29 09:21:42;;;;;;;34.25;9.75;;;7.80;99.90;;;;;;5068955;28;20044;-85
2021/12/29 09:24:08;;;;;;;33.38;9.57;;;8.00;99.90;;;;;;5068924;28;20515;-85
2021/12/29 09:26:34;;;;;;;28.17;9.30;;;7.90;99.90;;;;;;5069733;28;20044;-85
2021/12/29 09:29:00;;;;;;;29.58;9.45;;;7.90;99.90;;;;;;5086821;28;20090;-84
2021/12/29 09:31:26;;;;;;;28.98;8.77;;;7.90;99.90;;;;;;5088153;28;20484;-85
2021/12/29 09:33:52;;;;;;;32.13;9.88;;;7.90;99.90;;;;;;5068435;28;20054;-85
2021/12/29 09:36:18;;;;;;;21.67;8.25;;;7.70;99.90;;;;;;5069565;28;20048;-85
2021/12/29 09:38:45;;;;;;;24.30;8.40;;;8.80;99.90;;;;;;5087333;28;20051;-85
2021/12/29 09:41:16;;;;;;;24.08;8.77;;;8.00;99.90;;;;;;5087906;28;20044;-85
2021/12/29 09:43:43;;;;;;;23.02;7.43;;;8.00;99.90;;;;;;5087942;28;20040;-85
2021/12/29 09:46:10;;;;;;;27.35;7.40;;;8.00;99.90;;;;;;5086215;28;20048;-85
2021/12/29 09:48:37;;;;;;;25.23;8.20;;;8.00;99.90;;;;;;5087938;28;20040;-85
2021/12/29 09:51:05;;;;;;;23.90;7.82;;;8.00;99.90;;;;;;5067990;28;20475;-85
2021/12/29 09:53:30;;;;;;;21.88;7.43;;;8.00;99.90;;;;;;5069565;28;20043;-85
2021/12/29 09:55:56;;;;;;;21.83;6.85;;;8.00;99.90;;;;;;5086490;28;20059;-85
2021/12/29 09:58:22;;;;;;;22.48;8.05;;;8.10;99.90;;;;;;5086992;28;20121;-85
2021/12/29 10:00:56;;;;;;;24.95;7.05;;;8.10;99.90;;;;;;5087696;28;20101;-85
2021/12/29 10:03:24;;;;;;;28.67;7.70;;;9.30;99.90;;;;;;5086048;28;20047;-84
2021/12/29 10:05:52;;;;;;;19.38;7.85;;;8.10;99.90;;;;;;5087608;28;20043;-84
2021/12/29 10:08:25;;;;;;;31.58;9.48;;;9.60;99.90;;;;;;5085793;28;20496;-84
2021/12/29 10:10:53;;;;;;;;;;;8.20;99.90;;;;;;5088084;28;20101;-84
2021/12/29 10:13:19;;;;;;;17.08;6.95;;;8.20;99.90;;;;;;5052269;28;19977;-84
2021/12/29 10:15:50;;;;;;;17.52;7.38;;;8.20;99.90;;;;;;5067461;28;20183;-84
2021/12/29 10:18:28;;;;;;;22.33;8.02;;;8.20;99.90;;;;;;5085417;28;20044;-84
2021/12/29 10:21:00;;;;;;;21.50;7.60;;;8.20;99.90;;;;;;5067704;28;20482;-85
2021/12/29 10:23:28;;;;;;;20.20;8.17;;;8.30;99.90;;;;;;5087325;28;20156;-85
2021/12/29 10:25:56;;;;;;;25.23;7.03;;;8.30;99.90;;;;;;5068028;28;20121;-84
2021/12/29 10:28:23;;;;;;;17.05;6.90;;;8.30;99.90;;;;;;5068251;28;20221;-85
2021/12/29 10:31:06;;;;;;;19.73;7.05;;;8.30;99.90;;;;;;5067808;28;20062;-84
2021/12/29 10:33:44;;;;;;;16.60;6.95;;;8.40;99.90;;;;;;5085362;28;20091;-84
2021/12/29 10:36:39;;;;;;;17.35;7.18;;;8.40;99.90;;;;;;5068442;28;20047;-84
2021/12/29 10:39:13;;;;;;;17.45;7.60;;;8.40;99.90;;;;;;5055725;28;20524;-84
2021/12/29 10:42:01;;;;;;;18.67;7.65;;;8.30;99.90;;;;;;5066991;28;20537;-85
2021/12/29 10:44:31;;;;;;;18.00;6.82;;;8.40;99.90;;;;;;5086287;28;20044;-85
2021/12/29 10:46:59;;;;;;;15.02;7.18;;;8.40;99.90;;;;;;5085448;28;20044;-84
2021/12/29 10:49:27;;;;;;;17.13;8.00;;;8.40;99.90;;;;;;5086295;28;20040;-85
2021/12/29 10:51:56;;;;;;;20.73;7.03;;;8.40;99.90;;;;;;5067948;28;20364;-84
2021/12/29 10:54:24;;;;;;;15.15;6.93;;;8.40;99.90;;;;;;5066971;28;20044;-85
2021/12/29 10:57:06;;;;;;;25.58;7.43;;;8.40;99.90;;;;;;5068391;28;20164;-85
2021/12/29 10:59:37;;;;;;;15.55;6.78;;;8.50;99.90;;;;;;5067023;28;20048;-84
2021/12/29 11:02:05;;;;;;;14.18;6.90;;;8.50;99.90;;;;;;5051352;28;20055;-84
2021/12/29 11:04:30;;;;;;;17.67;7.43;;;8.80;99.90;;;;;;5085380;28;20563;-84
2021/12/29 11:06:59;;;;;;;14.68;6.85;;;8.50;99.90;;;;;;5067523;28;20147;-85
2021/12/29 11:09:34;;;;;;;14.07;7.03;;;8.50;99.90;;;;;;5067323;28;20048;-84
2021/12/29 11:12:08;;;;;;;15.30;6.45;;;8.50;99.90;;;;;;5066556;28;20051;-85
2021/12/29 11:14:34;;;;;;;18.45;7.50;;;8.50;99.90;;;;;;5086106;28;20518;-85
2021/12/29 11:17:03;;;;;;;13.60;6.68;;;8.50;99.90;;;;;;5084941;28;20047;-85
2021/12/29 11:19:30;;;;;;;14.82;6.13;;;8.50;99.90;;;;;;5067394;28;20087;-85
2021/12/29 11:22:07;;;;;;;19.40;6.50;;;8.60;99.90;;;;;;5086039;28;20035;-85
2021/12/29 11:24:32;;;;;;;17.33;5.90;;;8.50;99.90;;;;;;5084082;28;20048;-84
2021/12/29 11:26:59;;;;;;;11.05;6.45;;;8.50;99.90;;;;;;5067337;28;20040;-85
2021/12/29 11:29:25;;;;;;;12.90;6.10;;;8.50;99.90;;;;;;5084186;28;20428;-84
2021/12/29 11:32:03;;;;;;;12.73;6.60;;;8.50;99.90;;;;;;5086398;28;20040;-85
2021/12/29 11:34:29;;;;;;;17.00;6.07;;;8.50;99.90;;;;;;5084961;28;20047;-85
2021/12/29 11:37:09;;;;;;;17.63;5.88;;;8.50;99.90;;;;;;5066197;28;20040;-85
2021/12/29 11:39:45;;;;;;;11.32;5.55;;;8.50;99.90;;;;;;5085912;28;20040;-84
2021/12/29 11:42:12;;;;;;;9.27;5.20;;;8.50;99.90;;;;;;5065335;28;20054;-84
2021/12/29 11:44:39;;;;;;;15.32;5.35;;;8.50;99.90;;;;;;5085107;28;20487;-83
2021/12/29 11:47:08;;;;;;;12.73;5.47;;;8.50;99.90;;;;;;5084668;28;20403;-85
2021/12/29 11:49:34;;;;;;;16.77;7.50;;;8.50;99.90;;;;;;5084593;28;20036;-86
2021/12/29 11:52:09;;;;;;;14.57;6.10;;;8.90;99.90;;;;;;5085018;28;20116;-84
2021/12/29 11:55:03;;;;;;;16.80;8.68;;;8.60;99.90;;;;;;5065767;28;20084;-83
2021/12/29 11:57:30;;;;;;;;;;;8.50;99.90;;;;;;5067837;28;20090;-83
2021/12/29 12:00:17;;;;;;;15.63;5.03;;;8.50;99.90;;;;;;5084363;28;20363;-83
2021/12/29 12:02:45;;;;;;;15.73;6.32;;;8.50;99.90;;;;;;5065559;28;20139;-82
2021/12/29 12:05:32;;;;;;;12.55;5.28;;;8.60;99.90;;;;;;5084934;28;20513;-83
2021/12/29 12:08:09;;;;;;;13.75;5.45;;;8.50;99.90;;;;;;5065220;28;20084;-83
2021/12/29 12:10:36;;;;;;;14.70;5.15;;;8.60;99.90;;;;;;5084907;28;20040;-83
2021/12/29 12:13:27;;;;;;;8.13;4.47;;;8.60;99.90;;;;;;5084616;28;20403;-84
2021/12/29 12:16:08;;;;;;;17.45;5.30;;;8.60;99.90;;;;;;5082845;28;20060;-84
2021/12/29 12:18:50;;;;;;;11.38;4.57;;;8.60;99.90;;;;;;5085186;28;20089;-83
2021/12/29 12:21:39;;;;;;;19.23;7.50;;;8.60;99.90;;;;;;5065744;28;20054;-83
2021/12/29 12:24:16;;;;;;;16.45;7.07;;;8.60;99.90;;;;;;5065798;28;20048;-83
2021/12/29 12:26:50;;;;;;;17.02;5.20;;;8.60;99.90;;;;;;5065396;28;20074;-83
2021/12/29 12:29:16;;;;;;;13.55;4.78;;;8.60;99.90;;;;;;5048193;28;20213;-83
2021/12/29 12:31:46;;;;;;;10.30;4.78;;;8.60;99.90;;;;;;5066366;28;20131;-82
2021/12/29 12:34:13;;;;;;;20.65;5.68;;;8.60;99.90;;;;;;5083452;28;20036;-83
2021/12/29 12:36:41;;;;;;;15.52;4.43;;;8.50;99.90;;;;;;5031983;28;20442;-84
2021/12/29 12:39:10;;;;;;;13.18;3.88;;;8.90;99.90;;;;;;5048886;28;20113;-81
2021/12/29 12:41:42;;;;;;;14.05;5.07;;;8.70;99.90;;;;;;5082369;28;20048;-81
2021/12/29 12:44:08;;;;;;;13.95;4.78;;;8.80;99.90;;;;;;5084620;28;20417;-84
2021/12/29 12:46:39;;;;;;;14.82;3.50;;;8.60;99.90;;;;;;5048289;28;20036;-83
2021/12/29 12:49:25;;;;;;;12.68;3.53;;;8.60;99.90;;;;;;5065780;28;20081;-83
2021/12/29 12:51:58;;;;;;;13.95;3.47;;;8.60;99.90;;;;;;5066084;28;20050;-85